sensor_id;sensor_type;location;lat;lon;timestamp;P1;durP1;ratioP1;P2;durP2;ratioP2
13252;SDS011;6693;54.370;10.132;2022-11-20T00:00:38;11.73;;;7.20;;
13252;SDS011;6693;54.370;10.132;2022-11-20T00:01:38;11.88;;;6.82;;
13252;SDS011;6693;54.370;10.132;2022-11-20T00:02:42;12.80;;;8.82;;
13252;SDS011;6693;54.370;10.132;2022-11-20T00:03:43;9.93;;;6.38;;
13252;SDS011;6693;54.370;10.132;2022-11-20T00:04:46;8.98;;;4.47;;
13252;SDS011;6693;54.370;10.132;2022-11-20T00:05:49;12.10;;;8.55;;
13252;SDS011;6693;54.370;10.132;2022-11-20T00:06:53;12.60;;;8.63;;
13252;SDS011;6693;54.370;10.132;2022-11-20T00:07:53;13.10;;;8.63;;
13252;SDS011;6693;54.370;10.132;2022-11-20T00:08:57;9.93;;;5.75;;
13252;SDS011;6693;54.370;10.132;2022-11-20T00:10:00;9.07;;;4.00;;
13252;SDS011;6693;54.370;10.132;2022-11-20T00:11:03;8.10;;;3.60;;
13252;SDS011;6693;54.370;10.132;2022-11-20T00:12:04;7.95;;;4.20;;
13252;SDS011;6693;54.370;10.132;2022-11-20T00:13:08;6.80;;;2.97;;
13252;SDS011;6693;54.370;10.132;2022-11-20T00:14:08;6.65;;;2.90;;
13252;SDS011;6693;54.370;10.132;2022-11-20T00:15:12;6.88;;;2.95;;
13252;SDS011;6693;54.370;10.132;2022-11-20T00:16:14;7.53;;;3.92;;
13252;SDS011;6693;54.370;10.132;2022-11-20T00:17:18;7.22;;;2.83;;
13252;SDS011;6693;54.370;10.132;2022-11-20T00:18:18;6.90;;;3.72;;
13252;SDS011;6693;54.370;10.132;2022-11-20T00:19:22;7.80;;;3.65;;
13252;SDS011;6693;54.370;10.132;2022-11-20T00:20:22;7.05;;;3.85;;
13252;SDS011;6693;54.370;10.132;2022-11-20T00:21:28;7.15;;;3.17;;
13252;SDS011;6693;54.370;10.132;2022-11-20T00:22:32;7.22;;;4.07;;
13252;SDS011;6693;54.370;10.132;2022-11-20T00:23:33;7.78;;;4.97;;
13252;SDS011;6693;54.370;10.132;2022-11-20T00:24:36;7.22;;;3.00;;
13252;SDS011;6693;54.370;10.132;2022-11-20T00:25:37;7.57;;;3.05;;
13252;SDS011;6693;54.370;10.132;2022-11-20T00:26:40;7.90;;;4.68;;
13252;SDS011;6693;54.370;10.132;2022-11-20T00:27:40;6.95;;;3.60;;
13252;SDS011;6693;54.370;10.132;2022-11-20T00:28:44;6.82;;;3.55;;
13252;SDS011;6693;54.370;10.132;2022-11-20T00:29:49;6.88;;;3.55;;
13252;SDS011;6693;54.370;10.132;2022-11-20T00:30:52;5.97;;;3.20;;
13252;SDS011;6693;54.370;10.132;2022-11-20T00:31:55;6.63;;;3.13;;
13252;SDS011;6693;54.370;10.132;2022-11-20T00:32:58;6.10;;;3.13;;
13252;SDS011;6693;54.370;10.132;2022-11-20T00:33:59;7.28;;;3.78;;
13252;SDS011;6693;54.370;10.132;2022-11-20T00:35:02;5.75;;;2.38;;
13252;SDS011;6693;54.370;10.132;2022-11-20T00:36:04;7.55;;;2.70;;
13252;SDS011;6693;54.370;10.132;2022-11-20T00:37:11;6.82;;;2.90;;
13252;SDS011;6693;54.370;10.132;2022-11-20T00:38:11;7.95;;;3.72;;
13252;SDS011;6693;54.370;10.132;2022-11-20T00:39:14;7.57;;;4.15;;
13252;SDS011;6693;54.370;10.132;2022-11-20T00:40:18;7.30;;;3.70;;
13252;SDS011;6693;54.370;10.132;2022-11-20T00:41:18;8.68;;;3.85;;
13252;SDS011;6693;54.370;10.132;2022-11-20T00:42:21;7.43;;;3.55;;
13252;SDS011;6693;54.370;10.132;2022-11-20T00:43:22;7.18;;;2.85;;
13252;SDS011;6693;54.370;10.132;2022-11-20T00:44:32;7.35;;;3.80;;
13252;SDS011;6693;54.370;10.132;2022-11-20T00:45:32;8.57;;;4.55;;
13252;SDS011;6693;54.370;10.132;2022-11-20T00:46:35;7.25;;;3.92;;
13252;SDS011;6693;54.370;10.132;2022-11-20T00:47:36;7.82;;;3.97;;
13252;SDS011;6693;54.370;10.132;2022-11-20T00:48:40;7.13;;;3.10;;
13252;SDS011;6693;54.370;10.132;2022-11-20T00:49:40;7.72;;;3.83;;
13252;SDS011;6693;54.370;10.132;2022-11-20T00:50:43;6.65;;;3.63;;
13252;SDS011;6693;54.370;10.132;2022-11-20T00:51:44;7.28;;;3.75;;
13252;SDS011;6693;54.370;10.132;2022-11-20T00:52:50;7.32;;;2.85;;
13252;SDS011;6693;54.370;10.132;2022-11-20T00:53:50;8.02;;;3.97;;
13252;SDS011;6693;54.370;10.132;2022-11-20T00:54:54;6.78;;;3.28;;
13252;SDS011;6693;54.370;10.132;2022-11-20T00:55:55;6.22;;;2.78;;
13252;SDS011;6693;54.370;10.132;2022-11-20T00:56:59;8.38;;;3.17;;
13252;SDS011;6693;54.370;10.132;2022-11-20T00:57:59;8.52;;;4.07;;
13252;SDS011;6693;54.370;10.132;2022-11-20T00:59:02;6.40;;;2.88;;
13252;SDS011;6693;54.370;10.132;2022-11-20T01:00:03;6.28;;;2.72;;
13252;SDS011;6693;54.370;10.132;2022-11-20T01:01:09;7.88;;;4.32;;
13252;SDS011;6693;54.370;10.132;2022-11-20T01:02:10;8.23;;;3.78;;
13252;SDS011;6693;54.370;10.132;2022-11-20T01:03:15;8.25;;;3.90;;
13252;SDS011;6693;54.370;10.132;2022-11-20T01:04:16;8.15;;;4.50;;
13252;SDS011;6693;54.370;10.132;2022-11-20T01:05:19;7.75;;;3.13;;
13252;SDS011;6693;54.370;10.132;2022-11-20T01:06:20;8.23;;;3.85;;
13252;SDS011;6693;54.370;10.132;2022-11-20T01:07:25;7.85;;;3.50;;
13252;SDS011;6693;54.370;10.132;2022-11-20T01:08:28;9.07;;;4.22;;
13252;SDS011;6693;54.370;10.132;2022-11-20T01:09:32;6.88;;;3.22;;
13252;SDS011;6693;54.370;10.132;2022-11-20T01:10:33;6.80;;;3.45;;
13252;SDS011;6693;54.370;10.132;2022-11-20T01:11:37;6.13;;;3.45;;
13252;SDS011;6693;54.370;10.132;2022-11-20T01:12:41;7.75;;;3.70;;
13252;SDS011;6693;54.370;10.132;2022-11-20T01:13:42;8.82;;;3.40;;
13252;SDS011;6693;54.370;10.132;2022-11-20T01:14:46;10.85;;;5.20;;
13252;SDS011;6693;54.370;10.132;2022-11-20T01:15:47;8.15;;;3.58;;
13252;SDS011;6693;54.370;10.132;2022-11-20T01:16:50;8.52;;;4.22;;
13252;SDS011;6693;54.370;10.132;2022-11-20T01:17:51;7.57;;;3.63;;
13252;SDS011;6693;54.370;10.132;2022-11-20T01:18:55;9.88;;;3.10;;
13252;SDS011;6693;54.370;10.132;2022-11-20T01:19:57;6.65;;;3.72;;
13252;SDS011;6693;54.370;10.132;2022-11-20T01:21:01;8.55;;;3.33;;
13252;SDS011;6693;54.370;10.132;2022-11-20T01:22:03;8.27;;;3.25;;
13252;SDS011;6693;54.370;10.132;2022-11-20T01:23:06;6.65;;;3.15;;
13252;SDS011;6693;54.370;10.132;2022-11-20T01:24:10;8.10;;;2.78;;
13252;SDS011;6693;54.370;10.132;2022-11-20T01:25:15;8.05;;;4.15;;
13252;SDS011;6693;54.370;10.132;2022-11-20T01:26:16;8.32;;;3.53;;
13252;SDS011;6693;54.370;10.132;2022-11-20T01:27:20;7.45;;;3.95;;
13252;SDS011;6693;54.370;10.132;2022-11-20T01:28:23;6.88;;;3.20;;
13252;SDS011;6693;54.370;10.132;2022-11-20T01:29:24;7.47;;;3.13;;
13252;SDS011;6693;54.370;10.132;2022-11-20T01:30:28;9.25;;;3.10;;
13252;SDS011;6693;54.370;10.132;2022-11-20T01:31:29;7.75;;;2.63;;
13252;SDS011;6693;54.370;10.132;2022-11-20T01:32:33;6.63;;;2.80;;
13252;SDS011;6693;54.370;10.132;2022-11-20T01:33:34;7.57;;;2.83;;
13252;SDS011;6693;54.370;10.132;2022-11-20T01:34:37;6.88;;;2.63;;
13252;SDS011;6693;54.370;10.132;2022-11-20T01:35:40;8.25;;;3.28;;
13252;SDS011;6693;54.370;10.132;2022-11-20T01:36:41;7.35;;;4.15;;
13252;SDS011;6693;54.370;10.132;2022-11-20T01:37:45;8.32;;;3.47;;
13252;SDS011;6693;54.370;10.132;2022-11-20T01:38:46;8.20;;;2.88;;
13252;SDS011;6693;54.370;10.132;2022-11-20T01:39:52;7.82;;;3.50;;
13252;SDS011;6693;54.370;10.132;2022-11-20T01:40:55;8.20;;;2.83;;
13252;SDS011;6693;54.370;10.132;2022-11-20T01:41:59;7.57;;;4.07;;
13252;SDS011;6693;54.370;10.132;2022-11-20T01:43:16;8.30;;;3.10;;
13252;SDS011;6693;54.370;10.132;2022-11-20T01:44:22;12.60;;;4.90;;
13252;SDS011;6693;54.370;10.132;2022-11-20T01:47:08;11.48;;;5.00;;
13252;SDS011;6693;54.370;10.132;2022-11-20T01:48:09;11.25;;;4.20;;
13252;SDS011;6693;54.370;10.132;2022-11-20T01:49:14;10.15;;;4.45;;
13252;SDS011;6693;54.370;10.132;2022-11-20T01:50:18;9.15;;;4.45;;
13252;SDS011;6693;54.370;10.132;2022-11-20T01:51:26;8.52;;;2.72;;
13252;SDS011;6693;54.370;10.132;2022-11-20T01:52:30;8.15;;;3.67;;
13252;SDS011;6693;54.370;10.132;2022-11-20T01:53:35;7.25;;;3.17;;
13252;SDS011;6693;54.370;10.132;2022-11-20T01:54:38;10.65;;;4.13;;
13252;SDS011;6693;54.370;10.132;2022-11-20T01:55:45;10.82;;;4.88;;
13252;SDS011;6693;54.370;10.132;2022-11-20T01:56:47;12.25;;;5.45;;
13252;SDS011;6693;54.370;10.132;2022-11-20T01:57:51;12.13;;;5.70;;
13252;SDS011;6693;54.370;10.132;2022-11-20T01:58:52;15.60;;;7.20;;
13252;SDS011;6693;54.370;10.132;2022-11-20T01:59:59;11.85;;;4.05;;
13252;SDS011;6693;54.370;10.132;2022-11-20T02:01:06;9.65;;;4.75;;
13252;SDS011;6693;54.370;10.132;2022-11-20T02:02:09;7.88;;;3.65;;
13252;SDS011;6693;54.370;10.132;2022-11-20T02:03:11;8.13;;;3.50;;
13252;SDS011;6693;54.370;10.132;2022-11-20T02:04:16;6.72;;;3.83;;
13252;SDS011;6693;54.370;10.132;2022-11-20T02:05:18;6.50;;;2.65;;
13252;SDS011;6693;54.370;10.132;2022-11-20T02:06:25;6.55;;;3.72;;
13252;SDS011;6693;54.370;10.132;2022-11-20T02:07:27;6.72;;;3.38;;
13252;SDS011;6693;54.370;10.132;2022-11-20T02:08:30;6.15;;;2.97;;
13252;SDS011;6693;54.370;10.132;2022-11-20T02:09:31;6.97;;;3.03;;
13252;SDS011;6693;54.370;10.132;2022-11-20T02:10:34;7.85;;;3.72;;
13252;SDS011;6693;54.370;10.132;2022-11-20T02:11:35;8.02;;;4.03;;
13252;SDS011;6693;54.370;10.132;2022-11-20T02:12:38;7.07;;;3.88;;
13252;SDS011;6693;54.370;10.132;2022-11-20T02:13:54;6.47;;;3.15;;
13252;SDS011;6693;54.370;10.132;2022-11-20T02:14:56;6.80;;;2.78;;
13252;SDS011;6693;54.370;10.132;2022-11-20T02:15:57;8.13;;;4.75;;
13252;SDS011;6693;54.370;10.132;2022-11-20T02:17:02;7.40;;;3.65;;
13252;SDS011;6693;54.370;10.132;2022-11-20T02:18:06;6.07;;;3.08;;
13252;SDS011;6693;54.370;10.132;2022-11-20T02:19:07;6.22;;;2.60;;
13252;SDS011;6693;54.370;10.132;2022-11-20T02:20:15;6.50;;;3.42;;
13252;SDS011;6693;54.370;10.132;2022-11-20T02:21:24;5.78;;;3.67;;
13252;SDS011;6693;54.370;10.132;2022-11-20T02:22:30;6.20;;;3.45;;
13252;SDS011;6693;54.370;10.132;2022-11-20T02:23:36;5.60;;;2.30;;
13252;SDS011;6693;54.370;10.132;2022-11-20T02:24:44;5.20;;;2.10;;
13252;SDS011;6693;54.370;10.132;2022-11-20T02:25:45;5.40;;;2.28;;
13252;SDS011;6693;54.370;10.132;2022-11-20T02:26:49;5.53;;;2.88;;
13252;SDS011;6693;54.370;10.132;2022-11-20T02:27:55;6.70;;;3.17;;
13252;SDS011;6693;54.370;10.132;2022-11-20T02:28:56;6.05;;;3.03;;
13252;SDS011;6693;54.370;10.132;2022-11-20T02:30:00;5.88;;;2.42;;
13252;SDS011;6693;54.370;10.132;2022-11-20T02:31:04;5.40;;;2.60;;
13252;SDS011;6693;54.370;10.132;2022-11-20T02:32:05;4.55;;;2.03;;
13252;SDS011;6693;54.370;10.132;2022-11-20T02:33:08;4.30;;;2.20;;
13252;SDS011;6693;54.370;10.132;2022-11-20T02:34:09;3.63;;;1.00;;
13252;SDS011;6693;54.370;10.132;2022-11-20T02:36:41;3.10;;;0.63;;
13252;SDS011;6693;54.370;10.132;2022-11-20T02:37:45;2.83;;;1.20;;
13252;SDS011;6693;54.370;10.132;2022-11-20T02:38:47;2.90;;;0.50;;
13252;SDS011;6693;54.370;10.132;2022-11-20T02:39:54;3.20;;;0.63;;
13252;SDS011;6693;54.370;10.132;2022-11-20T02:40:55;2.95;;;0.68;;
13252;SDS011;6693;54.370;10.132;2022-11-20T02:42:00;2.45;;;0.47;;
13252;SDS011;6693;54.370;10.132;2022-11-20T02:43:01;2.67;;;0.47;;
13252;SDS011;6693;54.370;10.132;2022-11-20T02:44:04;2.67;;;0.60;;
13252;SDS011;6693;54.370;10.132;2022-11-20T02:45:06;2.92;;;0.60;;
13252;SDS011;6693;54.370;10.132;2022-11-20T02:46:10;3.17;;;0.90;;
13252;SDS011;6693;54.370;10.132;2022-11-20T02:47:10;2.72;;;1.00;;
13252;SDS011;6693;54.370;10.132;2022-11-20T02:48:14;2.20;;;0.40;;
13252;SDS011;6693;54.370;10.132;2022-11-20T02:49:14;2.35;;;0.30;;
13252;SDS011;6693;54.370;10.132;2022-11-20T02:50:17;2.42;;;1.08;;
13252;SDS011;6693;54.370;10.132;2022-11-20T02:51:18;2.67;;;0.40;;
13252;SDS011;6693;54.370;10.132;2022-11-20T02:52:22;2.05;;;0.45;;
13252;SDS011;6693;54.370;10.132;2022-11-20T02:53:22;1.92;;;0.38;;
13252;SDS011;6693;54.370;10.132;2022-11-20T02:54:25;2.63;;;0.50;;
13252;SDS011;6693;54.370;10.132;2022-11-20T02:55:29;2.78;;;1.08;;
13252;SDS011;6693;54.370;10.132;2022-11-20T02:56:32;2.08;;;0.52;;
13252;SDS011;6693;54.370;10.132;2022-11-20T02:57:35;2.85;;;0.40;;
13252;SDS011;6693;54.370;10.132;2022-11-20T02:58:36;2.42;;;0.70;;
13252;SDS011;6693;54.370;10.132;2022-11-20T02:59:39;2.38;;;0.75;;
13252;SDS011;6693;54.370;10.132;2022-11-20T03:00:39;2.72;;;0.50;;
13252;SDS011;6693;54.370;10.132;2022-11-20T03:01:43;2.75;;;0.38;;
13252;SDS011;6693;54.370;10.132;2022-11-20T03:02:43;2.97;;;0.52;;
13252;SDS011;6693;54.370;10.132;2022-11-20T03:03:46;1.90;;;0.30;;
13252;SDS011;6693;54.370;10.132;2022-11-20T03:04:52;2.38;;;0.50;;
13252;SDS011;6693;54.370;10.132;2022-11-20T03:05:52;2.15;;;0.40;;
13252;SDS011;6693;54.370;10.132;2022-11-20T03:06:56;2.58;;;0.40;;
13252;SDS011;6693;54.370;10.132;2022-11-20T03:07:56;2.30;;;0.40;;
13252;SDS011;6693;54.370;10.132;2022-11-20T03:08:59;2.30;;;0.32;;
13252;SDS011;6693;54.370;10.132;2022-11-20T03:10:00;2.10;;;0.30;;
13252;SDS011;6693;54.370;10.132;2022-11-20T03:11:07;2.95;;;0.60;;
13252;SDS011;6693;54.370;10.132;2022-11-20T03:12:07;2.88;;;0.80;;
13252;SDS011;6693;54.370;10.132;2022-11-20T03:13:10;2.05;;;0.80;;
13252;SDS011;6693;54.370;10.132;2022-11-20T03:14:11;2.00;;;0.30;;
13252;SDS011;6693;54.370;10.132;2022-11-20T03:15:14;2.70;;;0.95;;
13252;SDS011;6693;54.370;10.132;2022-11-20T03:16:16;2.55;;;0.80;;
13252;SDS011;6693;54.370;10.132;2022-11-20T03:17:20;2.35;;;0.85;;
13252;SDS011;6693;54.370;10.132;2022-11-20T03:18:21;2.22;;;0.70;;
13252;SDS011;6693;54.370;10.132;2022-11-20T03:19:24;2.40;;;1.10;;
13252;SDS011;6693;54.370;10.132;2022-11-20T03:20:25;2.65;;;1.05;;
13252;SDS011;6693;54.370;10.132;2022-11-20T03:21:28;1.73;;;0.30;;
13252;SDS011;6693;54.370;10.132;2022-11-20T03:22:28;2.15;;;1.00;;
13252;SDS011;6693;54.370;10.132;2022-11-20T03:23:32;2.70;;;0.80;;
13252;SDS011;6693;54.370;10.132;2022-11-20T03:24:33;2.53;;;0.90;;
13252;SDS011;6693;54.370;10.132;2022-11-20T03:25:36;1.77;;;0.30;;
13252;SDS011;6693;54.370;10.132;2022-11-20T03:26:39;2.40;;;0.80;;
13252;SDS011;6693;54.370;10.132;2022-11-20T03:27:43;1.88;;;0.35;;
13252;SDS011;6693;54.370;10.132;2022-11-20T03:28:45;2.10;;;0.22;;
13252;SDS011;6693;54.370;10.132;2022-11-20T03:29:49;2.13;;;0.77;;
13252;SDS011;6693;54.370;10.132;2022-11-20T03:30:50;1.33;;;0.30;;
13252;SDS011;6693;54.370;10.132;2022-11-20T03:31:53;1.25;;;0.25;;
13252;SDS011;6693;54.370;10.132;2022-11-20T03:32:54;1.95;;;0.40;;
13252;SDS011;6693;54.370;10.132;2022-11-20T03:33:57;2.50;;;0.38;;
13252;SDS011;6693;54.370;10.132;2022-11-20T03:34:58;1.27;;;0.20;;
13252;SDS011;6693;54.370;10.132;2022-11-20T03:36:03;1.83;;;0.38;;
13252;SDS011;6693;54.370;10.132;2022-11-20T03:37:04;1.42;;;0.20;;
13252;SDS011;6693;54.370;10.132;2022-11-20T03:38:07;2.00;;;0.77;;
13252;SDS011;6693;54.370;10.132;2022-11-20T03:39:08;2.08;;;0.70;;
13252;SDS011;6693;54.370;10.132;2022-11-20T03:40:11;2.63;;;0.65;;
13252;SDS011;6693;54.370;10.132;2022-11-20T03:41:13;2.20;;;0.40;;
13252;SDS011;6693;54.370;10.132;2022-11-20T03:42:20;2.08;;;0.85;;
13252;SDS011;6693;54.370;10.132;2022-11-20T03:43:36;2.13;;;0.70;;
13252;SDS011;6693;54.370;10.132;2022-11-20T03:44:40;1.20;;;0.30;;
13252;SDS011;6693;54.370;10.132;2022-11-20T03:45:40;2.38;;;0.65;;
13252;SDS011;6693;54.370;10.132;2022-11-20T03:46:44;1.30;;;0.20;;
13252;SDS011;6693;54.370;10.132;2022-11-20T03:47:47;2.05;;;0.90;;
13252;SDS011;6693;54.370;10.132;2022-11-20T03:48:48;1.27;;;0.20;;
13252;SDS011;6693;54.370;10.132;2022-11-20T03:49:51;1.00;;;0.20;;
13252;SDS011;6693;54.370;10.132;2022-11-20T03:50:52;2.90;;;0.80;;
13252;SDS011;6693;54.370;10.132;2022-11-20T03:51:55;2.13;;;0.90;;
13252;SDS011;6693;54.370;10.132;2022-11-20T03:52:56;1.92;;;0.60;;
13252;SDS011;6693;54.370;10.132;2022-11-20T03:53:59;1.90;;;0.70;;
13252;SDS011;6693;54.370;10.132;2022-11-20T03:55:01;1.80;;;0.68;;
13252;SDS011;6693;54.370;10.132;2022-11-20T03:56:05;1.88;;;0.90;;
13252;SDS011;6693;54.370;10.132;2022-11-20T03:57:06;1.35;;;0.20;;
13252;SDS011;6693;54.370;10.132;2022-11-20T03:58:12;1.85;;;0.73;;
13252;SDS011;6693;54.370;10.132;2022-11-20T03:59:15;1.50;;;0.60;;
13252;SDS011;6693;54.370;10.132;2022-11-20T04:00:16;1.80;;;0.93;;
13252;SDS011;6693;54.370;10.132;2022-11-20T04:01:20;1.67;;;0.20;;
13252;SDS011;6693;54.370;10.132;2022-11-20T04:02:22;0.82;;;0.13;;
13252;SDS011;6693;54.370;10.132;2022-11-20T04:03:25;2.10;;;0.30;;
13252;SDS011;6693;54.370;10.132;2022-11-20T04:04:26;1.30;;;0.20;;
13252;SDS011;6693;54.370;10.132;2022-11-20T04:05:29;2.00;;;0.65;;
13252;SDS011;6693;54.370;10.132;2022-11-20T04:06:30;1.95;;;0.68;;
13252;SDS011;6693;54.370;10.132;2022-11-20T04:07:36;3.58;;;1.42;;
13252;SDS011;6693;54.370;10.132;2022-11-20T04:08:36;4.47;;;1.50;;
13252;SDS011;6693;54.370;10.132;2022-11-20T04:09:40;5.28;;;3.53;;
13252;SDS011;6693;54.370;10.132;2022-11-20T04:10:40;4.22;;;2.13;;
13252;SDS011;6693;54.370;10.132;2022-11-20T04:11:44;3.53;;;1.40;;
13252;SDS011;6693;54.370;10.132;2022-11-20T04:12:44;2.95;;;0.70;;
13252;SDS011;6693;54.370;10.132;2022-11-20T04:13:51;2.85;;;1.20;;
13252;SDS011;6693;54.370;10.132;2022-11-20T04:14:52;2.45;;;0.98;;
13252;SDS011;6693;54.370;10.132;2022-11-20T04:15:56;2.70;;;0.98;;
13252;SDS011;6693;54.370;10.132;2022-11-20T04:16:57;2.50;;;1.20;;
13252;SDS011;6693;54.370;10.132;2022-11-20T04:18:00;2.35;;;0.40;;
13252;SDS011;6693;54.370;10.132;2022-11-20T04:19:02;2.40;;;0.93;;
13252;SDS011;6693;54.370;10.132;2022-11-20T04:20:06;2.58;;;0.90;;
13252;SDS011;6693;54.370;10.132;2022-11-20T04:21:08;2.78;;;1.05;;
13252;SDS011;6693;54.370;10.132;2022-11-20T04:22:11;2.30;;;0.80;;
13252;SDS011;6693;54.370;10.132;2022-11-20T04:23:12;2.20;;;0.85;;
13252;SDS011;6693;54.370;10.132;2022-11-20T04:24:15;1.95;;;0.70;;
13252;SDS011;6693;54.370;10.132;2022-11-20T04:25:16;2.20;;;0.88;;
13252;SDS011;6693;54.370;10.132;2022-11-20T04:26:20;2.67;;;1.10;;
13252;SDS011;6693;54.370;10.132;2022-11-20T04:27:21;2.67;;;0.90;;
13252;SDS011;6693;54.370;10.132;2022-11-20T04:28:24;2.70;;;1.00;;
13252;SDS011;6693;54.370;10.132;2022-11-20T04:29:27;2.20;;;0.30;;
13252;SDS011;6693;54.370;10.132;2022-11-20T04:30:30;3.13;;;1.05;;
13252;SDS011;6693;54.370;10.132;2022-11-20T04:31:32;4.25;;;1.55;;
13252;SDS011;6693;54.370;10.132;2022-11-20T04:32:36;1.75;;;0.30;;
13252;SDS011;6693;54.370;10.132;2022-11-20T04:33:37;2.72;;;1.33;;
13252;SDS011;6693;54.370;10.132;2022-11-20T04:34:40;2.47;;;0.50;;
13252;SDS011;6693;54.370;10.132;2022-11-20T04:35:44;3.08;;;0.93;;
13252;SDS011;6693;54.370;10.132;2022-11-20T04:36:46;2.22;;;0.50;;
13252;SDS011;6693;54.370;10.132;2022-11-20T04:37:50;1.95;;;0.30;;
13252;SDS011;6693;54.370;10.132;2022-11-20T04:38:51;3.35;;;1.27;;
13252;SDS011;6693;54.370;10.132;2022-11-20T04:39:55;2.60;;;0.82;;
13252;SDS011;6693;54.370;10.132;2022-11-20T04:40:56;2.95;;;1.50;;
13252;SDS011;6693;54.370;10.132;2022-11-20T04:42:00;2.88;;;1.08;;
13252;SDS011;6693;54.370;10.132;2022-11-20T04:43:16;2.67;;;0.50;;
13252;SDS011;6693;54.370;10.132;2022-11-20T04:44:19;3.13;;;0.40;;
13252;SDS011;6693;54.370;10.132;2022-11-20T04:45:23;3.85;;;1.27;;
13252;SDS011;6693;54.370;10.132;2022-11-20T04:46:26;2.53;;;1.02;;
13252;SDS011;6693;54.370;10.132;2022-11-20T04:47:27;2.60;;;0.45;;
13252;SDS011;6693;54.370;10.132;2022-11-20T04:48:30;2.75;;;1.10;;
13252;SDS011;6693;54.370;10.132;2022-11-20T04:49:31;2.65;;;1.33;;
13252;SDS011;6693;54.370;10.132;2022-11-20T04:50:34;2.47;;;0.95;;
13252;SDS011;6693;54.370;10.132;2022-11-20T04:51:40;2.95;;;1.10;;
13252;SDS011;6693;54.370;10.132;2022-11-20T04:52:43;2.55;;;0.82;;
13252;SDS011;6693;54.370;10.132;2022-11-20T04:53:43;3.45;;;1.42;;
13252;SDS011;6693;54.370;10.132;2022-11-20T04:54:46;2.65;;;1.02;;
13252;SDS011;6693;54.370;10.132;2022-11-20T04:55:47;2.10;;;0.90;;
13252;SDS011;6693;54.370;10.132;2022-11-20T04:56:50;2.70;;;1.00;;
13252;SDS011;6693;54.370;10.132;2022-11-20T04:57:51;2.47;;;0.85;;
13252;SDS011;6693;54.370;10.132;2022-11-20T04:58:54;2.83;;;0.85;;
13252;SDS011;6693;54.370;10.132;2022-11-20T04:59:55;2.13;;;0.32;;
13252;SDS011;6693;54.370;10.132;2022-11-20T05:01:04;2.58;;;1.00;;
13252;SDS011;6693;54.370;10.132;2022-11-20T05:02:05;3.42;;;1.08;;
13252;SDS011;6693;54.370;10.132;2022-11-20T05:03:09;3.05;;;1.08;;
13252;SDS011;6693;54.370;10.132;2022-11-20T05:04:09;2.67;;;1.08;;
13252;SDS011;6693;54.370;10.132;2022-11-20T05:05:12;2.50;;;0.40;;
13252;SDS011;6693;54.370;10.132;2022-11-20T05:06:14;2.28;;;0.40;;
13252;SDS011;6693;54.370;10.132;2022-11-20T05:07:18;2.88;;;0.98;;
13252;SDS011;6693;54.370;10.132;2022-11-20T05:08:18;2.25;;;0.40;;
13252;SDS011;6693;54.370;10.132;2022-11-20T05:09:21;2.10;;;0.40;;
13252;SDS011;6693;54.370;10.132;2022-11-20T05:10:22;3.20;;;1.20;;
13252;SDS011;6693;54.370;10.132;2022-11-20T05:11:26;1.98;;;0.40;;
13252;SDS011;6693;54.370;10.132;2022-11-20T05:12:29;2.53;;;0.50;;
13252;SDS011;6693;54.370;10.132;2022-11-20T05:13:32;3.25;;;1.15;;
13252;SDS011;6693;54.370;10.132;2022-11-20T05:14:32;2.33;;;0.50;;
13252;SDS011;6693;54.370;10.132;2022-11-20T05:15:35;3.28;;;0.80;;
13252;SDS011;6693;54.370;10.132;2022-11-20T05:16:39;3.63;;;0.80;;
13252;SDS011;6693;54.370;10.132;2022-11-20T05:17:46;4.22;;;1.30;;
13252;SDS011;6693;54.370;10.132;2022-11-20T05:18:47;3.50;;;1.30;;
13252;SDS011;6693;54.370;10.132;2022-11-20T05:19:51;3.70;;;1.23;;
13252;SDS011;6693;54.370;10.132;2022-11-20T05:20:54;2.72;;;0.77;;
13252;SDS011;6693;54.370;10.132;2022-11-20T05:21:58;2.72;;;0.65;;
13252;SDS011;6693;54.370;10.132;2022-11-20T05:22:59;2.90;;;0.60;;
13252;SDS011;6693;54.370;10.132;2022-11-20T05:24:02;3.35;;;1.40;;
13252;SDS011;6693;54.370;10.132;2022-11-20T05:25:03;3.70;;;0.95;;
13252;SDS011;6693;54.370;10.132;2022-11-20T05:26:07;2.95;;;0.73;;
13252;SDS011;6693;54.370;10.132;2022-11-20T05:27:11;4.50;;;1.60;;
13252;SDS011;6693;54.370;10.132;2022-11-20T05:28:14;3.72;;;0.90;;
13252;SDS011;6693;54.370;10.132;2022-11-20T05:29:15;3.58;;;1.55;;
13252;SDS011;6693;54.370;10.132;2022-11-20T05:30:18;4.38;;;1.40;;
13252;SDS011;6693;54.370;10.132;2022-11-20T05:31:19;3.60;;;1.65;;
13252;SDS011;6693;54.370;10.132;2022-11-20T05:32:26;4.43;;;1.00;;
13252;SDS011;6693;54.370;10.132;2022-11-20T05:33:27;4.97;;;2.33;;
13252;SDS011;6693;54.370;10.132;2022-11-20T05:34:30;4.07;;;1.17;;
13252;SDS011;6693;54.370;10.132;2022-11-20T05:35:31;4.28;;;1.40;;
13252;SDS011;6693;54.370;10.132;2022-11-20T05:36:34;4.82;;;2.05;;
13252;SDS011;6693;54.370;10.132;2022-11-20T05:37:37;5.95;;;2.28;;
13252;SDS011;6693;54.370;10.132;2022-11-20T05:38:38;4.30;;;1.55;;
13252;SDS011;6693;54.370;10.132;2022-11-20T05:39:41;4.35;;;1.50;;
13252;SDS011;6693;54.370;10.132;2022-11-20T05:40:42;4.93;;;1.85;;
13252;SDS011;6693;54.370;10.132;2022-11-20T05:41:45;5.30;;;2.13;;
13252;SDS011;6693;54.370;10.132;2022-11-20T05:42:46;5.60;;;2.38;;
13252;SDS011;6693;54.370;10.132;2022-11-20T05:43:49;6.90;;;3.55;;
13252;SDS011;6693;54.370;10.132;2022-11-20T05:44:50;6.18;;;3.63;;
13252;SDS011;6693;54.370;10.132;2022-11-20T05:45:53;5.95;;;2.50;;
13252;SDS011;6693;54.370;10.132;2022-11-20T05:46:54;6.13;;;3.20;;
13252;SDS011;6693;54.370;10.132;2022-11-20T05:48:00;5.00;;;2.70;;
13252;SDS011;6693;54.370;10.132;2022-11-20T05:49:01;5.45;;;2.50;;
13252;SDS011;6693;54.370;10.132;2022-11-20T05:50:04;8.27;;;5.07;;
13252;SDS011;6693;54.370;10.132;2022-11-20T05:51:06;7.65;;;4.28;;
13252;SDS011;6693;54.370;10.132;2022-11-20T05:52:14;9.38;;;5.88;;
13252;SDS011;6693;54.370;10.132;2022-11-20T05:53:14;9.05;;;5.47;;
13252;SDS011;6693;54.370;10.132;2022-11-20T05:54:18;9.55;;;5.85;;
13252;SDS011;6693;54.370;10.132;2022-11-20T05:55:18;9.05;;;6.00;;
13252;SDS011;6693;54.370;10.132;2022-11-20T05:56:22;14.02;;;8.93;;
13252;SDS011;6693;54.370;10.132;2022-11-20T05:57:22;13.77;;;10.35;;
13252;SDS011;6693;54.370;10.132;2022-11-20T05:58:26;11.15;;;8.05;;
13252;SDS011;6693;54.370;10.132;2022-11-20T05:59:26;8.65;;;5.80;;
13252;SDS011;6693;54.370;10.132;2022-11-20T06:00:30;8.00;;;5.53;;
13252;SDS011;6693;54.370;10.132;2022-11-20T06:01:30;6.82;;;3.95;;
13252;SDS011;6693;54.370;10.132;2022-11-20T06:02:34;8.10;;;4.93;;
13252;SDS011;6693;54.370;10.132;2022-11-20T06:03:38;6.30;;;3.35;;
13252;SDS011;6693;54.370;10.132;2022-11-20T06:04:42;7.20;;;4.28;;
13252;SDS011;6693;54.370;10.132;2022-11-20T06:05:45;6.65;;;3.28;;
13252;SDS011;6693;54.370;10.132;2022-11-20T06:06:46;7.43;;;4.28;;
13252;SDS011;6693;54.370;10.132;2022-11-20T06:07:49;12.57;;;9.35;;
13252;SDS011;6693;54.370;10.132;2022-11-20T06:08:50;8.60;;;5.90;;
13252;SDS011;6693;54.370;10.132;2022-11-20T06:09:53;8.07;;;5.10;;
13252;SDS011;6693;54.370;10.132;2022-11-20T06:10:53;7.55;;;4.35;;
13252;SDS011;6693;54.370;10.132;2022-11-20T06:11:57;6.32;;;3.88;;
13252;SDS011;6693;54.370;10.132;2022-11-20T06:12:57;7.60;;;5.10;;
13252;SDS011;6693;54.370;10.132;2022-11-20T06:14:00;8.05;;;4.68;;
13252;SDS011;6693;54.370;10.132;2022-11-20T06:15:04;8.88;;;4.28;;
13252;SDS011;6693;54.370;10.132;2022-11-20T06:16:06;10.48;;;6.53;;
13252;SDS011;6693;54.370;10.132;2022-11-20T06:17:09;8.82;;;5.43;;
13252;SDS011;6693;54.370;10.132;2022-11-20T06:18:12;9.80;;;6.03;;
13252;SDS011;6693;54.370;10.132;2022-11-20T06:19:16;8.95;;;5.50;;
13252;SDS011;6693;54.370;10.132;2022-11-20T06:20:19;8.30;;;5.20;;
13252;SDS011;6693;54.370;10.132;2022-11-20T06:21:20;7.80;;;4.78;;
13252;SDS011;6693;54.370;10.132;2022-11-20T06:22:24;7.72;;;4.10;;